Otagawa — JD3046 — position and weather

sailwx.info

Track history (hours):
 
Tides and Currents Weather Stations Pressure Air Temp Water Temp Dewpoint Dewpoint Depression Visibility Wind Speed Wind Dir Waves Ship Positions

Otagawa

Last reported at 2015-Mar-27 09:33 UTC. Time now 2015-Mar-27 10:21 UTC.
Position N 35°09' E 139°45'.

Length 70 m; draft 3.7 m.

Type: Ship. MMSI: 431001328.

Date/timePositionNaut miles runAvg speedWind from/ knotsBaromVisibWave heightAir tempDewpointWater temp
2015-Mar-27 09:33N 35°09' E 139°45'10 9.7
2015-Mar-27 08:34N 35°18' E 139°44'9 9.0
2015-Mar-27 07:33N 35°27' E 139°46'8 8.1
2015-Mar-27 06:34N 35°35' E 139°48'1 1.5
2015-Mar-27 05:33N 35°36' E 139°47'1 1.2
2015-Mar-27 04:31N 35°37' E 139°46'0 0.1
2015-Mar-27 03:33N 35°37' E 139°46'6 6.0
2015-Mar-27 02:33N 35°33' E 139°51'10 9.9
2015-Mar-27 01:34N 35°26' E 139°42'1 1.0
2015-Mar-27 00:29N 35°26' E 139°41'0 0.0
2015-Mar-26 23:32N 35°26' E 139°41'0 0.2
2015-Mar-26 22:33N 35°27' E 139°41'1 0.8
2015-Mar-26 21:33N 35°26' E 139°42'0 0.0
2015-Mar-26 20:33N 35°26' E 139°42'4 4.1
2015-Mar-26 19:34N 35°22' E 139°43'1010.3
2015-Mar-26 18:34N 35°12' E 139°47'10 9.9
2015-Mar-26 17:33N 35°04' E 139°40'27 1.0
2015-Mar-25 14:12N 34°51' E 139°10'1910.5
2015-Mar-25 12:23N 35°02' E 139°30'910.5
2015-Mar-25 11:33N 35°06' E 139°39'1110.9
2015-Mar-25 10:33N 35°15' E 139°46'1010.1
2015-Mar-25 09:33N 35°25' E 139°44'10 9.6
2015-Mar-25 08:33N 35°34' E 139°49'4 3.4
2015-Mar-25 07:29N 35°37' E 139°46'0 0.0
2015-Mar-25 06:29N 35°37' E 139°46'0 0.0
2015-Mar-25 05:33N 35°37' E 139°46'0 0.0
2015-Mar-25 04:33N 35°37' E 139°46'0 0.0
2015-Mar-25 03:33N 35°37' E 139°46'0 0.0
2015-Mar-25 02:27N 35°37' E 139°46'0 0.0
2015-Mar-25 01:21N 35°37' E 139°46'0 0.0
2015-Mar-25 00:33N 35°37' E 139°46'0 0.0
2015-Mar-24 23:33N 35°37' E 139°46'2 2.4
2015-Mar-24 22:33N 35°35' E 139°48'3 2.3
2015-Mar-24 21:27N 35°34' E 139°51'0 0.0
2015-Mar-24 20:33N 35°34' E 139°51'0 0.0
2015-Mar-24 19:18N 35°34' E 139°51'0 0.0
2015-Mar-24 18:27N 35°34' E 139°51'0 0.0
2015-Mar-24 17:33N 35°34' E 139°51'2 1.7
2015-Mar-24 16:33N 35°32' E 139°52'10 9.6
2015-Mar-24 15:33N 35°24' E 139°46'9 8.9
2015-Mar-24 14:33N 35°15' E 139°47'10 9.9
2015-Mar-24 13:33N 35°05' E 139°43'13 0.7
2015-Mar-23 19:17N 35°01' E 139°28'810.6
2015-Mar-23 18:32N 35°05' E 139°36'1111.3
2015-Mar-23 17:34N 35°13' E 139°46'1110.5
2015-Mar-23 16:33N 35°23' E 139°42'4 3.8
2015-Mar-23 15:33N 35°26' E 139°41'0 0.0
2015-Mar-23 14:33N 35°26' E 139°41'0 0.0
2015-Mar-23 13:33N 35°26' E 139°41'0 0.0
2015-Mar-23 12:33N 35°26' E 139°41'0 0.0
2015-Mar-23 11:33N 35°26' E 139°41'0 0.0
2015-Mar-23 10:33N 35°26' E 139°41'1 0.6
2015-Mar-23 09:33N 35°26' E 139°42'0 0.5
2015-Mar-23 08:33N 35°26' E 139°42'0 0.0
2015-Mar-23 07:33N 35°26' E 139°42'9 8.8
2015-Mar-23 06:33N 35°18' E 139°45'1110.7
2015-Mar-23 05:33N 35°07' E 139°46'1110.5
2015-Mar-23 04:31N 34°56' E 139°44'11 8.2
2015-Mar-23 03:10N 34°54' E 139°57'6 9.3
2015-Mar-23 02:32N 34°57' E 140°03'9 8.7
2015-Mar-23 01:33N 35°02' E 140°12'20 9.5
2015-Mar-22 23:29N 35°14' E 140°30'1010.7
2015-Mar-22 22:33N 35°22' E 140°38'1110.8
2015-Mar-22 21:33N 35°31' E 140°46'1111.3
2015-Mar-22 20:33N 35°40' E 140°54'1110.9
2015-Mar-22 19:33N 35°51' E 140°57'1110.9
2015-Mar-22 18:33N 36°02' E 140°57'87 2.2
2015-Mar-21 03:22N 34°59' E 139°43'911.3
2015-Mar-21 02:33N 35°07' E 139°45'1111.2
2015-Mar-21 01:33N 35°19' E 139°44'8 7.9
2015-Mar-21 00:33N 35°26' E 139°41'0 0.0
2015-Mar-20 23:33N 35°26' E 139°41'0 0.3
2015-Mar-20 22:33N 35°26' E 139°41'1 0.7
2015-Mar-20 21:31N 35°26' E 139°42'0 0.0
2015-Mar-20 20:34N 35°26' E 139°42'0 0.0
2015-Mar-20 19:34N 35°26' E 139°42'0 0.1
2015-Mar-20 18:34N 35°26' E 139°42'0 0.0
2015-Mar-20 17:34N 35°26' E 139°42'0 0.0
2015-Mar-20 16:34N 35°26' E 139°42'0 0.0
2015-Mar-20 15:33N 35°26' E 139°42'0 0.0
2015-Mar-20 14:33N 35°26' E 139°42'0 0.0
2015-Mar-20 13:33N 35°26' E 139°42'0 0.0
2015-Mar-20 12:34N 35°26' E 139°42'6 5.9
2015-Mar-20 11:33N 35°29' E 139°48'8 7.9
2015-Mar-20 10:34N 35°37' E 139°46'0 0.1
2015-Mar-20 09:09N 35°37' E 139°46'0 0.0
2015-Mar-20 08:33N 35°37' E 139°46'2 0.2
2015-Mar-19 22:33N 35°35' E 139°47'7 5.4
2015-Mar-19 21:18N 35°30' E 139°52'7 9.9
2015-Mar-19 20:33N 35°24' E 139°46'9 9.1
2015-Mar-19 19:33N 35°15' E 139°47'1010.0
2015-Mar-19 18:33N 35°05' E 139°43'1110.6
2015-Mar-19 17:32N 34°59' E 139°32'8 0.3
2015-Mar-18 16:33N 35°06' E 139°38'1110.6
2015-Mar-18 15:33N 35°14' E 139°46'10 9.7
2015-Mar-18 14:33N 35°23' E 139°42'1110.6
2015-Mar-18 13:32N 35°32' E 139°50'6 1.8
2015-Mar-18 10:13N 35°37' E 139°46'2 0.5
2015-Mar-18 05:25N 35°35' E 139°48'7 8.5
2015-Mar-18 04:32N 35°28' E 139°50'1010.2
2015-Mar-18 03:33N 35°19' E 139°44'10 9.9
2015-Mar-18 02:33N 35°09' E 139°46'1010.0
2015-Mar-18 01:33N 35°02' E 139°38'  
Track history (hours):
 
Tides and Currents Weather Stations Pressure Air Temp Water Temp Dewpoint Dewpoint Depression Visibility Wind Speed Wind Dir Waves Ship Positions

Otagawa

Last reported at 2015-Mar-27 09:33 UTC. Time now 2015-Mar-27 10:21 UTC.
Position N 35°09' E 139°45'.

Length 70 m; draft 3.7 m.

Type: Ship. MMSI: 431001328.

Date/timePositionNaut miles runAvg speedWind from/ knotsBaromVisibWave heightAir tempDewpointWater temp
2015-Mar-27 09:33N 35°09' E 139°45'10 9.7
2015-Mar-27 08:34N 35°18' E 139°44'9 9.0
2015-Mar-27 07:33N 35°27' E 139°46'8 8.1
2015-Mar-27 06:34N 35°35' E 139°48'1 1.5
2015-Mar-27 05:33N 35°36' E 139°47'1 1.2
2015-Mar-27 04:31N 35°37' E 139°46'0 0.1
2015-Mar-27 03:33N 35°37' E 139°46'6 6.0
2015-Mar-27 02:33N 35°33' E 139°51'10 9.9
2015-Mar-27 01:34N 35°26' E 139°42'1 1.0
2015-Mar-27 00:29N 35°26' E 139°41'0 0.0
2015-Mar-26 23:32N 35°26' E 139°41'0 0.2
2015-Mar-26 22:33N 35°27' E 139°41'1 0.8
2015-Mar-26 21:33N 35°26' E 139°42'0 0.0
2015-Mar-26 20:33N 35°26' E 139°42'4 4.1
2015-Mar-26 19:34N 35°22' E 139°43'1010.3
2015-Mar-26 18:34N 35°12' E 139°47'10 9.9
2015-Mar-26 17:33N 35°04' E 139°40'27 1.0
2015-Mar-25 14:12N 34°51' E 139°10'1910.5
2015-Mar-25 12:23N 35°02' E 139°30'910.5
2015-Mar-25 11:33N 35°06' E 139°39'1110.9
2015-Mar-25 10:33N 35°15' E 139°46'1010.1
2015-Mar-25 09:33N 35°25' E 139°44'10 9.6
2015-Mar-25 08:33N 35°34' E 139°49'4 3.4
2015-Mar-25 07:29N 35°37' E 139°46'0 0.0
2015-Mar-25 06:29N 35°37' E 139°46'0 0.0
2015-Mar-25 05:33N 35°37' E 139°46'0 0.0
2015-Mar-25 04:33N 35°37' E 139°46'0 0.0
2015-Mar-25 03:33N 35°37' E 139°46'0 0.0
2015-Mar-25 02:27N 35°37' E 139°46'0 0.0
2015-Mar-25 01:21N 35°37' E 139°46'0 0.0
2015-Mar-25 00:33N 35°37' E 139°46'0 0.0
2015-Mar-24 23:33N 35°37' E 139°46'2 2.4
2015-Mar-24 22:33N 35°35' E 139°48'3 2.3
2015-Mar-24 21:27N 35°34' E 139°51'0 0.0
2015-Mar-24 20:33N 35°34' E 139°51'0 0.0
2015-Mar-24 19:18N 35°34' E 139°51'0 0.0
2015-Mar-24 18:27N 35°34' E 139°51'0 0.0
2015-Mar-24 17:33N 35°34' E 139°51'2 1.7
2015-Mar-24 16:33N 35°32' E 139°52'10 9.6
2015-Mar-24 15:33N 35°24' E 139°46'9 8.9
2015-Mar-24 14:33N 35°15' E 139°47'10 9.9
2015-Mar-24 13:33N 35°05' E 139°43'13 0.7
2015-Mar-23 19:17N 35°01' E 139°28'810.6
2015-Mar-23 18:32N 35°05' E 139°36'1111.3
2015-Mar-23 17:34N 35°13' E 139°46'1110.5
2015-Mar-23 16:33N 35°23' E 139°42'4 3.8
2015-Mar-23 15:33N 35°26' E 139°41'0 0.0
2015-Mar-23 14:33N 35°26' E 139°41'0 0.0
2015-Mar-23 13:33N 35°26' E 139°41'0 0.0
2015-Mar-23 12:33N 35°26' E 139°41'0 0.0
2015-Mar-23 11:33N 35°26' E 139°41'0 0.0
2015-Mar-23 10:33N 35°26' E 139°41'1 0.6
2015-Mar-23 09:33N 35°26' E 139°42'0 0.5
2015-Mar-23 08:33N 35°26' E 139°42'0 0.0
2015-Mar-23 07:33N 35°26' E 139°42'9 8.8
2015-Mar-23 06:33N 35°18' E 139°45'1110.7
2015-Mar-23 05:33N 35°07' E 139°46'1110.5
2015-Mar-23 04:31N 34°56' E 139°44'11 8.2
2015-Mar-23 03:10N 34°54' E 139°57'6 9.3
2015-Mar-23 02:32N 34°57' E 140°03'9 8.7
2015-Mar-23 01:33N 35°02' E 140°12'20 9.5
2015-Mar-22 23:29N 35°14' E 140°30'1010.7
2015-Mar-22 22:33N 35°22' E 140°38'1110.8
2015-Mar-22 21:33N 35°31' E 140°46'1111.3
2015-Mar-22 20:33N 35°40' E 140°54'1110.9
2015-Mar-22 19:33N 35°51' E 140°57'1110.9
2015-Mar-22 18:33N 36°02' E 140°57'87 2.2
2015-Mar-21 03:22N 34°59' E 139°43'911.3
2015-Mar-21 02:33N 35°07' E 139°45'1111.2
2015-Mar-21 01:33N 35°19' E 139°44'8 7.9
2015-Mar-21 00:33N 35°26' E 139°41'0 0.0
2015-Mar-20 23:33N 35°26' E 139°41'0 0.3
2015-Mar-20 22:33N 35°26' E 139°41'1 0.7
2015-Mar-20 21:31N 35°26' E 139°42'0 0.0
2015-Mar-20 20:34N 35°26' E 139°42'0 0.0
2015-Mar-20 19:34N 35°26' E 139°42'0 0.1
2015-Mar-20 18:34N 35°26' E 139°42'0 0.0
2015-Mar-20 17:34N 35°26' E 139°42'0 0.0
2015-Mar-20 16:34N 35°26' E 139°42'0 0.0
2015-Mar-20 15:33N 35°26' E 139°42'0 0.0
2015-Mar-20 14:33N 35°26' E 139°42'0 0.0
2015-Mar-20 13:33N 35°26' E 139°42'0 0.0
2015-Mar-20 12:34N 35°26' E 139°42'6 5.9
2015-Mar-20 11:33N 35°29' E 139°48'8 7.9
2015-Mar-20 10:34N 35°37' E 139°46'0 0.1
2015-Mar-20 09:09N 35°37' E 139°46'0 0.0
2015-Mar-20 08:33N 35°37' E 139°46'2 0.2
2015-Mar-19 22:33N 35°35' E 139°47'7 5.4
2015-Mar-19 21:18N 35°30' E 139°52'7 9.9
2015-Mar-19 20:33N 35°24' E 139°46'9 9.1
2015-Mar-19 19:33N 35°15' E 139°47'1010.0
2015-Mar-19 18:33N 35°05' E 139°43'1110.6
2015-Mar-19 17:32N 34°59' E 139°32'8 0.3
2015-Mar-18 16:33N 35°06' E 139°38'1110.6
2015-Mar-18 15:33N 35°14' E 139°46'10 9.7
2015-Mar-18 14:33N 35°23' E 139°42'1110.6
2015-Mar-18 13:32N 35°32' E 139°50'6 1.8
2015-Mar-18 10:13N 35°37' E 139°46'2 0.5
2015-Mar-18 05:25N 35°35' E 139°48'7 8.5
2015-Mar-18 04:32N 35°28' E 139°50'1010.2
2015-Mar-18 03:33N 35°19' E 139°44'10 9.9
2015-Mar-18 02:33N 35°09' E 139°46'1010.0
2015-Mar-18 01:33N 35°02' E 139°38'  

Dump ship's entire track history